createdAt,value
2023-04-01T00:01:26.400Z,8.38
2023-04-01T00:02:59.670Z,8.42
2023-04-01T00:04:33.448Z,8.43
2023-04-01T00:06:07.382Z,8.44
2023-04-01T00:07:41.365Z,8.45
2023-04-01T00:09:14.644Z,8.50
2023-04-01T00:10:46.968Z,8.52
2023-04-01T00:12:20.261Z,8.60
2023-04-01T00:13:53.389Z,8.65
2023-04-01T00:15:25.690Z,8.66
2023-04-01T00:16:59.231Z,8.63
2023-04-01T00:18:31.844Z,8.67
2023-04-01T00:20:05.787Z,8.73
2023-04-01T00:21:40.452Z,8.78
2023-04-01T00:23:12.792Z,8.72
2023-04-01T00:24:45.995Z,8.70
2023-04-01T00:26:21.475Z,8.73
2023-04-01T00:27:54.684Z,8.65
2023-04-01T00:29:30.280Z,8.63
2023-04-01T00:31:07.330Z,8.62
2023-04-01T00:32:40.877Z,8.59
2023-04-01T00:34:14.831Z,8.61
2023-04-01T00:35:48.804Z,8.62
2023-04-01T00:37:23.908Z,8.62
2023-04-01T00:38:57.183Z,8.62
2023-04-01T00:40:33.542Z,8.59
2023-04-01T00:42:07.151Z,8.56
2023-04-01T00:43:40.379Z,8.53
2023-04-01T00:45:29.303Z,8.54
2023-04-01T00:47:03.339Z,8.50
2023-04-01T00:48:40.568Z,8.46
2023-04-01T00:50:13.098Z,8.44
2023-04-01T00:51:49.182Z,8.31
2023-04-01T00:53:25.003Z,8.24
2023-04-01T00:55:02.225Z,8.22
2023-04-01T00:56:38.211Z,8.15
2023-04-01T00:58:15.700Z,8.14
2023-04-01T00:59:53.815Z,8.12
2023-04-01T01:01:28.137Z,8.11
2023-04-01T01:03:01.565Z,8.16
2023-04-01T01:04:36.443Z,8.19
2023-04-01T01:06:26.317Z,8.21
2023-04-01T01:08:07.231Z,8.22
2023-04-01T01:09:53.312Z,8.20
2023-04-01T01:11:42.619Z,8.19
2023-04-01T01:13:21.510Z,8.18
2023-04-01T01:15:02.452Z,8.21
2023-04-01T01:16:41.863Z,8.20
2023-04-01T01:18:22.003Z,8.20
2023-04-01T01:20:50.599Z,8.22
2023-04-01T01:22:38.237Z,8.24
2023-04-01T01:24:36.678Z,8.24
2023-04-01T01:26:38.913Z,8.23
2023-04-01T01:28:31.044Z,8.22
2023-04-01T01:30:27.785Z,8.24
2023-04-01T01:32:07.807Z,8.24
2023-04-01T01:34:10.205Z,8.24
2023-04-01T01:35:48.760Z,8.26
2023-04-01T01:37:29.617Z,8.28
2023-04-01T01:39:04.978Z,8.30
2023-04-01T01:40:40.631Z,8.28
2023-04-01T01:42:18.113Z,8.27
2023-04-01T01:43:53.910Z,8.22
2023-04-01T01:45:28.657Z,8.11
2023-04-01T01:47:03.245Z,8.04
2023-04-01T01:48:37.146Z,7.95
2023-04-01T01:50:12.978Z,7.86
2023-04-01T01:51:49.159Z,7.89
2023-04-01T01:53:21.667Z,7.89
2023-04-01T01:54:57.469Z,7.90
2023-04-01T01:56:36.478Z,7.90
2023-04-01T01:58:13.221Z,7.86
2023-04-01T01:59:49.819Z,7.83
2023-04-01T02:01:33.650Z,7.84
2023-04-01T02:03:17.272Z,7.82
2023-04-01T02:04:51.830Z,7.82
2023-04-01T02:06:27.898Z,7.82
2023-04-01T02:08:08.804Z,7.84
2023-04-01T02:09:42.828Z,7.69
2023-04-01T02:11:21.211Z,7.61
2023-04-01T02:13:02.253Z,7.50
2023-04-01T02:14:42.265Z,7.42
2023-04-01T02:16:22.040Z,7.41
2023-04-01T02:17:58.160Z,7.47
2023-04-01T02:19:36.238Z,7.57
2023-04-01T02:21:11.277Z,7.62
2023-04-01T02:22:49.380Z,7.68
2023-04-01T02:24:25.799Z,7.74
2023-04-01T02:25:59.026Z,7.75
2023-04-01T02:27:33.142Z,7.80
2023-04-01T02:29:09.254Z,7.83
2023-04-01T02:30:45.299Z,7.82
2023-04-01T02:32:21.558Z,7.90
2023-04-01T02:33:55.695Z,7.91
2023-04-01T02:35:28.172Z,7.93
2023-04-01T02:37:01.715Z,7.95
2023-04-01T02:38:37.493Z,8.00
2023-04-01T02:40:14.697Z,7.97
2023-04-01T02:41:48.352Z,7.95
2023-04-01T02:43:22.491Z,7.95
2023-04-01T02:44:55.710Z,7.90
2023-04-01T02:46:29.098Z,7.95
2023-04-01T02:48:01.245Z,7.86
2023-04-01T02:49:34.555Z,7.74
2023-04-01T02:51:07.694Z,7.66
2023-04-01T02:52:41.124Z,7.59
2023-04-01T02:54:14.788Z,7.55
2023-04-01T02:55:52.884Z,7.44
2023-04-01T02:57:26.670Z,7.43
2023-04-01T02:59:00.062Z,7.37
2023-04-01T03:00:33.171Z,7.34
2023-04-01T03:02:07.763Z,7.33
2023-04-01T03:03:41.115Z,7.31
2023-04-01T03:05:13.849Z,7.29
2023-04-01T03:06:47.156Z,7.31
2023-04-01T03:08:20.432Z,7.32
2023-04-01T03:09:53.562Z,7.30
2023-04-01T03:11:28.457Z,7.33
2023-04-01T03:13:01.581Z,7.30
2023-04-01T03:14:34.893Z,7.30
2023-04-01T03:16:08.193Z,7.26
2023-04-01T03:17:43.232Z,7.26
2023-04-01T03:19:16.054Z,7.25
2023-04-01T03:20:49.871Z,7.26
2023-04-01T03:22:23.400Z,7.17
2023-04-01T03:23:55.913Z,7.13
2023-04-01T03:25:29.707Z,7.13
2023-04-01T03:27:04.741Z,7.13
2023-04-01T03:28:36.867Z,7.17
2023-04-01T03:30:11.775Z,7.19
2023-04-01T03:31:53.931Z,7.20
2023-04-01T03:33:26.290Z,7.22
2023-04-01T03:34:59.706Z,7.24
2023-04-01T03:36:33.299Z,7.27
2023-04-01T03:38:06.900Z,7.26
2023-04-01T03:39:41.388Z,7.27
2023-04-01T03:41:15.841Z,7.29
2023-04-01T03:42:51.847Z,7.19
2023-04-01T03:44:25.675Z,7.24
2023-04-01T03:45:59.915Z,7.23
2023-04-01T03:47:33.378Z,7.21
2023-04-01T03:49:12.506Z,7.17
2023-04-01T03:50:46.860Z,7.13
2023-04-01T03:52:22.031Z,7.04
2023-04-01T03:53:55.470Z,7.05
2023-04-01T03:55:28.096Z,7.01
2023-04-01T03:57:01.543Z,7.16
2023-04-01T03:58:37.850Z,7.21
2023-04-01T04:00:13.650Z,7.29
2023-04-01T04:01:53.240Z,7.30
2023-04-01T04:03:27.363Z,7.30
2023-04-01T04:05:00.818Z,7.24
2023-04-01T04:06:35.778Z,7.30
2023-04-01T04:08:09.195Z,7.31
2023-04-01T04:09:43.388Z,7.34
2023-04-01T04:11:17.326Z,7.35
2023-04-01T04:12:51.969Z,7.41
2023-04-01T04:14:28.529Z,7.45
2023-04-01T04:16:02.115Z,7.60
2023-04-01T04:17:37.711Z,7.62
2023-04-01T04:19:10.918Z,7.68
2023-04-01T04:20:48.225Z,7.70
2023-04-01T04:22:21.743Z,7.64
2023-04-01T04:23:55.127Z,7.62
2023-04-01T04:25:28.783Z,7.58
2023-04-01T04:27:02.183Z,7.53
2023-04-01T04:28:35.900Z,7.47
2023-04-01T04:30:12.035Z,7.47
2023-04-01T04:31:45.370Z,7.46
2023-04-01T04:33:18.393Z,7.48
2023-04-01T04:34:51.848Z,7.52
2023-04-01T04:36:26.148Z,7.53
2023-04-01T04:37:58.950Z,7.59
2023-04-01T04:39:33.050Z,7.65
2023-04-01T04:41:11.328Z,7.67
2023-04-01T04:42:44.936Z,7.66
2023-04-01T04:44:22.058Z,7.72
2023-04-01T04:45:56.905Z,7.76
2023-04-01T04:47:29.152Z,7.85
2023-04-01T04:49:02.603Z,7.93
2023-04-01T04:50:35.728Z,7.98
2023-04-01T04:52:09.311Z,8.02
2023-04-01T04:53:42.627Z,8.01
2023-04-01T04:55:16.196Z,8.00
2023-04-01T04:56:53.804Z,7.81
2023-04-01T04:58:28.415Z,7.74
2023-04-01T05:00:02.090Z,7.77
2023-04-01T05:01:50.931Z,7.83
2023-04-01T05:03:24.247Z,7.85
2023-04-01T05:04:57.682Z,7.92
2023-04-01T05:06:32.409Z,8.03
2023-04-01T05:08:06.183Z,8.10
2023-04-01T05:09:39.388Z,8.15
2023-04-01T05:11:16.035Z,8.18
2023-04-01T05:12:49.306Z,8.22
2023-04-01T05:14:25.940Z,8.23
2023-04-01T05:16:09.597Z,8.31
2023-04-01T05:17:45.156Z,8.33
2023-04-01T05:19:18.423Z,8.39
2023-04-01T05:20:53.044Z,8.44
2023-04-01T05:22:26.521Z,8.53
2023-04-01T05:24:00.005Z,8.61
2023-04-01T05:25:34.333Z,8.68
2023-04-01T05:27:07.930Z,8.68
2023-04-01T05:28:45.043Z,8.82
2023-04-01T05:30:18.667Z,8.87
2023-04-01T05:32:14.866Z,8.93
2023-04-01T05:33:49.546Z,8.97
2023-04-01T05:35:22.968Z,8.94
2023-04-01T05:36:55.174Z,8.91
2023-04-01T05:38:28.369Z,8.90
2023-04-01T05:40:01.773Z,8.88
2023-04-01T05:41:38.451Z,8.89
2023-04-01T05:43:11.652Z,8.92
2023-04-01T05:44:45.647Z,8.93
2023-04-01T05:46:38.143Z,8.98
2023-04-01T05:48:27.023Z,9.02
2023-04-01T05:50:02.441Z,9.04
2023-04-01T05:51:35.759Z,9.07
2023-04-01T05:53:09.102Z,9.08
2023-04-01T05:54:43.946Z,9.14
2023-04-01T05:56:17.501Z,9.22
2023-04-01T05:57:56.233Z,9.24
2023-04-01T05:59:32.171Z,9.27
2023-04-01T06:01:11.469Z,9.36
2023-04-01T06:02:50.262Z,9.40
2023-04-01T06:04:23.754Z,9.41
2023-04-01T06:05:58.697Z,9.44
2023-04-01T06:07:32.041Z,9.47
2023-04-01T06:09:14.392Z,9.39
2023-04-01T06:11:07.026Z,9.41
2023-04-01T06:12:52.563Z,9.38
2023-04-01T06:14:38.337Z,9.38
2023-04-01T06:16:21.385Z,9.37
2023-04-01T06:18:27.907Z,9.29
2023-04-01T06:20:11.730Z,9.24
2023-04-01T06:22:18.379Z,9.24
2023-04-01T06:24:07.600Z,9.30
2023-04-01T06:26:00.256Z,9.27
2023-04-01T06:27:52.764Z,9.23
2023-04-01T06:29:51.213Z,9.22
2023-04-01T06:31:50.865Z,9.30
2023-04-01T06:33:45.990Z,9.32
2023-04-01T06:35:40.692Z,9.34
2023-04-01T06:37:38.597Z,9.38
2023-04-01T06:39:30.286Z,9.45
2023-04-01T06:41:18.389Z,9.43
2023-04-01T06:43:10.108Z,9.55
2023-04-01T06:45:35.472Z,9.47
2023-04-01T06:47:45.647Z,9.48
2023-04-01T06:49:50.428Z,9.51
2023-04-01T06:51:52.636Z,9.52
2023-04-01T06:53:56.998Z,9.57
2023-04-01T06:56:12.800Z,9.71
2023-04-01T06:58:24.410Z,9.91
2023-04-01T07:00:02.505Z,10.04
2023-04-01T07:01:40.104Z,10.15
2023-04-01T07:03:24.359Z,10.35
2023-04-01T07:05:00.219Z,10.52
2023-04-01T07:06:37.787Z,10.68
2023-04-01T07:08:15.870Z,10.83
2023-04-01T07:09:54.366Z,10.80
2023-04-01T07:11:39.749Z,10.80
2023-04-01T07:13:37.472Z,10.85
2023-04-01T07:15:23.406Z,10.88
2023-04-01T07:17:03.248Z,10.95
2023-04-01T07:18:44.317Z,11.10
2023-04-01T07:20:25.156Z,11.23
2023-04-01T07:22:02.966Z,11.27
2023-04-01T07:23:54.614Z,11.35
2023-04-01T07:25:44.667Z,11.48
2023-04-01T07:27:50.434Z,11.63
2023-04-01T07:29:25.064Z,11.63
2023-04-01T07:31:12.968Z,11.73
2023-04-01T07:32:53.179Z,11.86
2023-04-01T07:34:30.471Z,11.93
2023-04-01T07:36:10.723Z,11.95
2023-04-01T07:37:52.432Z,12.02
2023-04-01T07:39:36.603Z,12.10
2023-04-01T07:41:28.443Z,12.12
2023-04-01T07:43:27.283Z,12.04
2023-04-01T07:45:31.919Z,12.14
2023-04-01T07:47:22.001Z,12.19
2023-04-01T07:49:00.636Z,12.33
2023-04-01T07:50:38.995Z,12.40
2023-04-01T07:52:21.665Z,12.46
2023-04-01T07:54:08.445Z,12.57
2023-04-01T07:55:49.135Z,12.74
2023-04-01T07:57:27.596Z,12.85
2023-04-01T07:59:12.422Z,13.16
2023-04-01T08:01:13.919Z,13.65
2023-04-01T08:03:11.901Z,14.00
2023-04-01T08:05:05.484Z,14.40
2023-04-01T08:06:47.382Z,14.67
2023-04-01T08:08:28.140Z,14.97
2023-04-01T08:10:15.573Z,15.24
2023-04-01T08:12:23.058Z,15.19
2023-04-01T08:14:18.579Z,15.36
2023-04-01T08:16:18.536Z,15.63
2023-04-01T08:18:11.508Z,15.85
2023-04-01T08:19:58.443Z,16.03
2023-04-01T08:21:43.802Z,15.94
2023-04-01T08:23:20.833Z,15.98
2023-04-01T08:24:58.363Z,15.90
2023-04-01T08:26:37.265Z,15.81
2023-04-01T08:28:15.942Z,15.86
2023-04-01T08:29:57.641Z,15.88
2023-04-01T08:31:37.378Z,15.85
2023-04-01T08:33:17.976Z,15.98
2023-04-01T08:35:01.700Z,16.13
2023-04-01T08:36:45.824Z,16.23
2023-04-01T08:38:28.726Z,16.33
2023-04-01T08:40:12.577Z,16.34
2023-04-01T08:42:19.629Z,16.20
2023-04-01T08:44:21.783Z,16.38
2023-04-01T08:46:19.835Z,16.37
2023-04-01T08:48:09.481Z,16.48
2023-04-01T08:50:00.469Z,16.67
2023-04-01T08:52:34.436Z,16.92
2023-04-01T08:54:32.309Z,16.96
2023-04-01T08:56:17.353Z,17.03
2023-04-01T08:58:31.528Z,17.28
2023-04-01T09:00:33.773Z,17.69
2023-04-01T09:03:05.383Z,18.19
2023-04-01T09:05:06.845Z,18.67
2023-04-01T09:07:08.829Z,18.89
2023-04-01T09:09:01.393Z,19.01
2023-04-01T09:10:58.918Z,19.11
2023-04-01T09:13:10.999Z,19.24
2023-04-01T09:15:19.223Z,19.47
2023-04-01T09:17:35.251Z,19.70
2023-04-01T09:19:19.554Z,19.74
2023-04-01T09:21:20.012Z,19.84
2023-04-01T09:23:08.473Z,19.76
2023-04-01T09:24:58.854Z,19.53
2023-04-01T09:27:09.262Z,19.41
2023-04-01T09:28:53.548Z,19.36
2023-04-01T09:31:03.402Z,19.33
2023-04-01T09:33:09.029Z,19.31
2023-04-01T09:35:13.403Z,19.27
2023-04-01T09:36:48.598Z,19.11
2023-04-01T09:38:26.155Z,19.05
2023-04-01T09:40:14.452Z,18.96
2023-04-01T09:42:03.716Z,18.86
2023-04-01T09:44:01.072Z,18.86
2023-04-01T09:45:50.398Z,18.71
2023-04-01T09:47:42.588Z,18.79
2023-04-01T09:49:41.175Z,18.86
2023-04-01T09:51:28.643Z,18.94
2023-04-01T09:53:17.039Z,19.00
2023-04-01T09:55:02.107Z,19.11
2023-04-01T09:57:07.000Z,19.19
2023-04-01T09:59:10.730Z,19.29
2023-04-01T10:01:53.678Z,19.46
2023-04-01T10:04:10.766Z,19.71
2023-04-01T10:06:35.651Z,19.86
2023-04-01T10:08:31.059Z,19.92
2023-04-01T10:10:29.970Z,19.90
2023-04-01T10:12:27.236Z,19.92
2023-04-01T10:14:35.833Z,19.95
2023-04-01T10:16:32.429Z,19.88
2023-04-01T10:18:46.921Z,20.03
2023-04-01T10:21:07.998Z,20.36
2023-04-01T10:23:14.169Z,20.72
2023-04-01T10:25:07.530Z,21.00
2023-04-01T10:27:00.782Z,21.40
2023-04-01T10:29:40.321Z,21.55
2023-04-01T10:31:43.217Z,21.62
2023-04-01T10:33:43.914Z,21.68
2023-04-01T10:35:31.939Z,21.79
2023-04-01T10:37:18.022Z,21.95
2023-04-01T10:39:19.879Z,21.97
2023-04-01T10:41:41.512Z,22.20
2023-04-01T10:44:15.995Z,22.11
2023-04-01T10:46:17.600Z,22.25
2023-04-01T10:48:25.031Z,22.36
2023-04-01T10:50:26.344Z,22.39
2023-04-01T10:52:47.385Z,22.77
2023-04-01T10:54:44.186Z,23.04
2023-04-01T10:57:01.164Z,23.18
2023-04-01T10:59:18.653Z,23.38
2023-04-01T11:02:11.913Z,23.41
2023-04-01T11:04:42.849Z,23.27
2023-04-01T11:07:41.809Z,23.40
2023-04-01T11:09:42.530Z,23.42
2023-04-01T11:12:05.995Z,23.32
2023-04-01T11:14:19.141Z,23.53
2023-04-01T11:16:17.149Z,23.59
2023-04-01T11:18:35.862Z,23.63
2023-04-01T11:20:54.289Z,23.74
2023-04-01T11:22:58.883Z,23.82
2023-04-01T11:25:00.326Z,23.81
2023-04-01T11:27:06.419Z,23.68
2023-04-01T11:29:11.819Z,23.70
2023-04-01T11:30:59.834Z,23.76
2023-04-01T11:32:56.052Z,23.78
2023-04-01T11:34:53.895Z,23.75
2023-04-01T11:36:50.411Z,23.74
2023-04-01T11:38:49.143Z,23.66
2023-04-01T11:40:49.941Z,23.62
2023-04-01T11:42:47.757Z,23.47
2023-04-01T11:44:56.165Z,23.50
2023-04-01T11:46:47.247Z,23.61
2023-04-01T11:48:39.186Z,23.49
2023-04-01T11:50:28.078Z,23.46
2023-04-01T11:52:20.681Z,23.55
2023-04-01T11:54:06.483Z,23.56
2023-04-01T11:55:54.145Z,23.62
2023-04-01T11:57:45.692Z,23.53
2023-04-01T11:59:55.033Z,23.24
2023-04-01T12:01:39.075Z,23.19
2023-04-01T12:03:31.908Z,23.32
2023-04-01T12:05:39.093Z,23.37
2023-04-01T12:07:24.466Z,23.38
2023-04-01T12:09:04.511Z,23.30
2023-04-01T12:10:45.424Z,23.15
2023-04-01T12:12:26.483Z,22.88
2023-04-01T12:14:09.412Z,22.61
2023-04-01T12:15:58.584Z,22.31
2023-04-01T12:17:42.690Z,22.11
2023-04-01T12:19:24.425Z,21.74
2023-04-01T12:21:04.667Z,21.53
2023-04-01T12:22:50.718Z,21.48
2023-04-01T12:24:49.051Z,21.39
2023-04-01T12:26:45.673Z,21.18
2023-04-01T12:28:28.124Z,20.96
2023-04-01T12:30:42.796Z,21.05
2023-04-01T12:32:22.732Z,20.93
2023-04-01T12:34:10.542Z,20.95
2023-04-01T12:36:01.703Z,20.72
2023-04-01T12:37:43.676Z,20.57
2023-04-01T12:39:51.586Z,20.51
2023-04-01T12:41:35.422Z,20.51
2023-04-01T12:43:24.237Z,20.38
2023-04-01T12:45:14.630Z,20.39
2023-04-01T12:47:06.853Z,20.40
2023-04-01T12:49:13.479Z,20.41
2023-04-01T12:51:19.802Z,20.29
2023-04-01T12:53:12.397Z,20.08
2023-04-01T12:55:21.933Z,19.87
2023-04-01T12:57:12.100Z,19.78
2023-04-01T12:59:34.303Z,19.65
2023-04-01T13:01:28.437Z,19.65
2023-04-01T13:03:23.701Z,19.65
2023-04-01T13:05:22.759Z,19.43
2023-04-01T13:07:17.227Z,19.37
2023-04-01T13:09:00.326Z,19.35
2023-04-01T13:10:45.232Z,19.29
2023-04-01T13:12:51.288Z,19.33
2023-04-01T13:14:53.072Z,19.33
2023-04-01T13:16:29.524Z,19.32
2023-04-01T13:18:17.474Z,19.31
2023-04-01T13:20:04.897Z,19.30
2023-04-01T13:21:53.042Z,19.27
2023-04-01T13:23:38.259Z,19.24
2023-04-01T13:25:28.417Z,19.16
2023-04-01T13:27:11.120Z,19.09
2023-04-01T13:28:53.190Z,19.12
2023-04-01T13:30:31.188Z,19.02
2023-04-01T13:32:33.205Z,18.94
2023-04-01T13:34:31.268Z,18.86
2023-04-01T13:36:19.511Z,18.78
2023-04-01T13:38:05.411Z,18.67
2023-04-01T13:39:56.205Z,18.56
2023-04-01T13:41:51.157Z,18.52
2023-04-01T13:43:28.126Z,18.49
2023-04-01T13:45:05.746Z,18.43
2023-04-01T13:46:57.015Z,18.33
2023-04-01T13:49:01.340Z,18.23
2023-04-01T13:50:59.823Z,18.13
2023-04-01T13:53:00.413Z,18.05
2023-04-01T13:55:03.777Z,17.96
2023-04-01T13:56:47.886Z,17.92
2023-04-01T13:59:00.334Z,17.82
2023-04-01T14:00:41.698Z,17.62
2023-04-01T14:02:31.642Z,17.35
2023-04-01T14:04:31.921Z,17.12
2023-04-01T14:06:15.336Z,16.87
2023-04-01T14:08:01.807Z,16.65
2023-04-01T14:10:01.992Z,16.38
2023-04-01T14:11:46.634Z,15.89
2023-04-01T14:13:30.762Z,15.48
2023-04-01T14:15:23.582Z,15.15
2023-04-01T14:17:07.119Z,14.96
2023-04-01T14:18:55.542Z,14.78
2023-04-01T14:20:39.014Z,14.59
2023-04-01T14:22:22.847Z,14.50
2023-04-01T14:24:25.822Z,14.37
2023-04-01T14:26:28.243Z,14.20
2023-04-01T14:28:11.566Z,13.94
2023-04-01T14:29:59.489Z,13.88
2023-04-01T14:32:02.175Z,13.85
2023-04-01T14:33:44.660Z,13.79
2023-04-01T14:35:41.435Z,13.64
2023-04-01T14:37:34.318Z,13.50
2023-04-01T14:39:36.694Z,13.32
2023-04-01T14:41:22.788Z,13.17
2023-04-01T14:43:12.929Z,13.09
2023-04-01T14:45:20.371Z,13.05
2023-04-01T14:47:24.886Z,12.93
2023-04-01T14:49:03.034Z,12.85
2023-04-01T14:50:45.788Z,12.77
2023-04-01T14:52:27.168Z,12.78
2023-04-01T14:54:10.491Z,12.77
2023-04-01T14:55:53.138Z,12.85
2023-04-01T14:57:27.907Z,12.89
2023-04-01T14:59:02.874Z,12.91
2023-04-01T15:00:50.030Z,12.91
2023-04-01T15:02:46.742Z,13.02
2023-04-01T15:04:49.731Z,13.08
2023-04-01T15:06:53.565Z,13.20
2023-04-01T15:08:31.221Z,13.34
2023-04-01T15:10:20.863Z,13.44
2023-04-01T15:12:05.714Z,13.48
2023-04-01T15:14:01.604Z,13.48
2023-04-01T15:15:58.759Z,13.53
2023-04-01T15:17:45.881Z,13.49
2023-04-01T15:19:27.169Z,13.51
2023-04-01T15:21:20.759Z,13.50
2023-04-01T15:23:09.200Z,13.49
2023-04-01T15:24:49.289Z,13.68
2023-04-01T15:26:53.403Z,14.02
2023-04-01T15:28:35.646Z,14.41
2023-04-01T15:30:33.083Z,14.63
2023-04-01T15:32:18.976Z,14.96
2023-04-01T15:34:22.937Z,15.36
2023-04-01T15:36:04.204Z,15.43
2023-04-01T15:37:48.192Z,15.45
2023-04-01T15:39:27.785Z,15.51
2023-04-01T15:41:09.956Z,15.67
2023-04-01T15:42:59.520Z,15.62
2023-04-01T15:45:04.129Z,15.73
2023-04-01T15:46:47.013Z,15.84
2023-04-01T15:48:35.757Z,16.04
2023-04-01T15:50:31.068Z,16.12
2023-04-01T15:52:21.614Z,16.03
2023-04-01T15:54:10.558Z,15.59
2023-04-01T15:55:50.548Z,15.33
2023-04-01T15:57:31.022Z,15.15
2023-04-01T15:59:19.012Z,15.03
2023-04-01T16:00:57.301Z,14.97
2023-04-01T16:02:37.272Z,14.91
2023-04-01T16:04:27.945Z,14.89
2023-04-01T16:06:23.249Z,14.79
2023-04-01T16:08:18.670Z,14.48
2023-04-01T16:10:08.098Z,14.49
2023-04-01T16:11:53.126Z,14.41
2023-04-01T16:13:43.960Z,14.38
2023-04-01T16:15:27.097Z,14.23
2023-04-01T16:17:21.597Z,14.12
2023-04-01T16:19:10.111Z,14.10
2023-04-01T16:20:53.463Z,14.07
2023-04-01T16:22:33.255Z,13.93
2023-04-01T16:24:17.485Z,13.85
2023-04-01T16:26:00.032Z,13.82
2023-04-01T16:27:43.548Z,13.79
2023-04-01T16:29:26.032Z,13.80
2023-04-01T16:31:06.536Z,13.73
2023-04-01T16:32:46.259Z,13.71
2023-04-01T16:34:23.529Z,13.68
2023-04-01T16:36:02.039Z,13.62
2023-04-01T16:37:42.118Z,13.63
2023-04-01T16:39:30.036Z,13.62
2023-04-01T16:41:15.373Z,13.60
2023-04-01T16:42:53.750Z,13.55
2023-04-01T16:44:28.597Z,13.54
2023-04-01T16:46:30.205Z,13.53
2023-04-01T16:48:13.627Z,13.50
2023-04-01T16:49:53.344Z,13.47
2023-04-01T16:51:35.101Z,13.42
2023-04-01T16:53:17.123Z,13.36
2023-04-01T16:54:55.603Z,13.28
2023-04-01T16:56:40.187Z,13.15
2023-04-01T16:58:22.731Z,13.06
2023-04-01T17:00:02.019Z,13.02
2023-04-01T17:01:45.151Z,13.04
2023-04-01T17:03:23.984Z,13.04
2023-04-01T17:05:03.014Z,12.94
2023-04-01T17:06:45.908Z,12.92
2023-04-01T17:08:31.387Z,12.94
2023-04-01T17:10:23.777Z,12.77
2023-04-01T17:12:04.379Z,12.87
2023-04-01T17:13:47.047Z,12.87
2023-04-01T17:15:31.287Z,12.83
2023-04-01T17:17:18.086Z,12.73
2023-04-01T17:18:58.013Z,12.81
2023-04-01T17:20:42.747Z,12.83
2023-04-01T17:22:31.810Z,12.73
2023-04-01T17:24:21.140Z,12.76
2023-04-01T17:26:08.273Z,12.72
2023-04-01T17:27:50.183Z,12.69
2023-04-01T17:29:31.040Z,12.62
2023-04-01T17:31:13.110Z,12.63
2023-04-01T17:33:05.042Z,12.67
2023-04-01T17:34:48.936Z,12.69
2023-04-01T17:36:35.426Z,12.70
2023-04-01T17:38:22.088Z,12.68
2023-04-01T17:40:06.803Z,12.56
2023-04-01T17:41:49.821Z,12.51
2023-04-01T17:43:36.545Z,12.41
2023-04-01T17:45:13.681Z,12.41
2023-04-01T17:47:01.706Z,12.43
2023-04-01T17:48:44.544Z,12.33
2023-04-01T17:50:24.359Z,12.32
2023-04-01T17:52:06.758Z,12.19
2023-04-01T17:53:50.284Z,12.18
2023-04-01T17:55:42.056Z,12.17
2023-04-01T17:57:40.972Z,12.22
2023-04-01T17:59:25.359Z,11.98
2023-04-01T18:01:10.143Z,11.96
2023-04-01T18:02:50.933Z,12.01
2023-04-01T18:05:01.007Z,12.02
2023-04-01T18:06:39.530Z,12.11
2023-04-01T18:08:19.777Z,12.19
2023-04-01T18:10:18.005Z,12.23
2023-04-01T18:12:01.631Z,12.21
2023-04-01T18:13:58.080Z,12.25
2023-04-01T18:15:39.944Z,12.26
2023-04-01T18:17:25.907Z,12.20
2023-04-01T18:19:07.402Z,12.13
2023-04-01T18:20:53.402Z,12.14
2023-04-01T18:22:54.976Z,12.10
2023-04-01T18:24:32.903Z,12.05
2023-04-01T18:26:14.048Z,12.04
2023-04-01T18:27:51.573Z,12.03
2023-04-01T18:29:37.690Z,12.08
2023-04-01T18:31:27.154Z,12.04
2023-04-01T18:33:07.458Z,12.03
2023-04-01T18:34:53.151Z,12.00
2023-04-01T18:36:38.122Z,12.03
2023-04-01T18:38:15.538Z,11.95
2023-04-01T18:39:56.924Z,11.99
2023-04-01T18:41:38.186Z,11.99
2023-04-01T18:43:19.741Z,11.92
2023-04-01T18:44:58.642Z,11.87
2023-04-01T18:46:41.304Z,11.92
2023-04-01T18:48:25.508Z,11.86
2023-04-01T18:50:08.826Z,11.79
2023-04-01T18:51:51.140Z,11.77
2023-04-01T18:53:33.165Z,11.79
2023-04-01T18:55:36.237Z,11.75
2023-04-01T18:57:15.599Z,11.69
2023-04-01T18:58:55.433Z,11.73
2023-04-01T19:00:35.132Z,11.73
2023-04-01T19:02:22.222Z,11.73
2023-04-01T19:04:05.775Z,11.68
2023-04-01T19:05:42.334Z,11.58
2023-04-01T19:07:42.734Z,11.70
2023-04-01T19:09:26.943Z,11.64
2023-04-01T19:11:19.130Z,11.73
2023-04-01T19:13:09.689Z,11.70
2023-04-01T19:14:56.404Z,11.67
2023-04-01T19:16:47.124Z,11.78
2023-04-01T19:18:37.135Z,11.79
2023-04-01T19:20:21.764Z,11.75
2023-04-01T19:22:00.520Z,11.77
2023-04-01T19:24:09.894Z,11.78
2023-04-01T19:25:50.302Z,11.75
2023-04-01T19:27:36.214Z,11.77
2023-04-01T19:29:24.550Z,11.82
2023-04-01T19:31:01.334Z,11.81
2023-04-01T19:32:51.084Z,11.88
2023-04-01T19:34:31.341Z,11.89
2023-04-01T19:36:13.824Z,11.92
2023-04-01T19:37:53.851Z,11.94
2023-04-01T19:39:39.888Z,11.97
2023-04-01T19:41:27.766Z,11.95
2023-04-01T19:43:10.900Z,11.91
2023-04-01T19:44:56.637Z,11.91
2023-04-01T19:46:36.013Z,11.85
2023-04-01T19:48:23.006Z,11.81
2023-04-01T19:50:07.847Z,11.77
2023-04-01T19:51:51.261Z,11.73
2023-04-01T19:53:34.495Z,11.72
2023-04-01T19:55:20.880Z,11.63
2023-04-01T19:57:03.511Z,11.61
2023-04-01T19:58:46.810Z,11.61
2023-04-01T20:00:28.227Z,11.65
2023-04-01T20:02:24.235Z,11.69
2023-04-01T20:04:04.691Z,11.71
2023-04-01T20:06:04.096Z,11.62
2023-04-01T20:07:43.499Z,11.70
2023-04-01T20:09:43.330Z,11.66
2023-04-01T20:11:30.617Z,11.62
2023-04-01T20:13:14.311Z,11.56
2023-04-01T20:14:51.293Z,11.52
2023-04-01T20:16:45.960Z,11.50
2023-04-01T20:18:24.443Z,11.45
2023-04-01T20:20:01.553Z,11.42
2023-04-01T20:21:38.723Z,11.37
2023-04-01T20:23:42.682Z,11.35
2023-04-01T20:25:21.014Z,11.30
2023-04-01T20:27:05.516Z,11.27
2023-04-01T20:28:49.835Z,11.25
2023-04-01T20:30:45.767Z,11.21
2023-04-01T20:32:40.754Z,11.21
2023-04-01T20:34:28.981Z,11.18
2023-04-01T20:36:13.980Z,11.25
2023-04-01T20:37:56.116Z,11.17
2023-04-01T20:40:19.932Z,11.22
2023-04-01T20:42:08.925Z,11.25
2023-04-01T20:43:55.136Z,11.24
2023-04-01T20:45:36.621Z,11.34
2023-04-01T20:47:25.167Z,11.38
2023-04-01T20:49:25.733Z,11.43
2023-04-01T20:51:01.525Z,11.43
2023-04-01T20:52:40.113Z,11.47
2023-04-01T20:54:28.414Z,11.47
2023-04-01T20:56:26.897Z,11.48
2023-04-01T20:58:14.118Z,11.47
2023-04-01T21:00:05.964Z,11.50
2023-04-01T21:01:46.958Z,11.52
2023-04-01T21:03:38.621Z,11.53
2023-04-01T21:05:47.447Z,11.54
2023-04-01T21:07:26.867Z,11.60
2023-04-01T21:09:22.191Z,11.67
2023-04-01T21:11:05.910Z,11.68
2023-04-01T21:12:50.370Z,11.72
2023-04-01T21:14:47.987Z,11.75
2023-04-01T21:16:32.008Z,11.71
2023-04-01T21:18:32.759Z,11.73
2023-04-01T21:20:38.470Z,11.69
2023-04-01T21:22:52.104Z,11.64
2023-04-01T21:24:58.606Z,11.51
2023-04-01T21:26:54.614Z,11.41
2023-04-01T21:28:44.520Z,11.44
2023-04-01T21:30:35.334Z,11.44
2023-04-01T21:32:24.992Z,11.48
2023-04-01T21:34:35.110Z,11.49
2023-04-01T21:36:21.577Z,11.48
2023-04-01T21:38:26.122Z,11.48
2023-04-01T21:40:34.294Z,11.58
2023-04-01T21:42:26.526Z,11.58
2023-04-01T21:44:29.837Z,11.58
2023-04-01T21:46:27.480Z,11.70
2023-04-01T21:48:37.150Z,11.65
2023-04-01T21:50:46.182Z,11.67
2023-04-01T21:52:48.019Z,11.67
2023-04-01T21:54:54.640Z,11.63
2023-04-01T21:57:00.418Z,11.67
2023-04-01T21:59:07.220Z,11.62
2023-04-01T22:00:50.212Z,11.55
2023-04-01T22:02:55.860Z,11.63
2023-04-01T22:04:44.567Z,11.67
2023-04-01T22:06:28.195Z,11.68
2023-04-01T22:08:16.771Z,11.66
2023-04-01T22:10:01.391Z,11.67
2023-04-01T22:11:46.169Z,11.68
2023-04-01T22:13:26.053Z,11.70
2023-04-01T22:15:06.884Z,11.65
2023-04-01T22:16:48.270Z,11.68
2023-04-01T22:18:29.969Z,11.74
2023-04-01T22:20:18.709Z,11.73
2023-04-01T22:22:03.944Z,11.78
2023-04-01T22:23:44.379Z,11.83
2023-04-01T22:25:24.581Z,11.83
2023-04-01T22:27:05.411Z,11.84
2023-04-01T22:28:45.071Z,11.79
2023-04-01T22:30:25.208Z,11.86
2023-04-01T22:32:05.725Z,11.85
2023-04-01T22:33:49.276Z,11.93
2023-04-01T22:35:35.916Z,11.88
2023-04-01T22:37:20.568Z,11.93
2023-04-01T22:39:11.521Z,11.97
2023-04-01T22:40:53.627Z,11.96
2023-04-01T22:42:42.102Z,11.97
2023-04-01T22:44:31.719Z,11.97
2023-04-01T22:46:23.664Z,12.00
2023-04-01T22:48:07.694Z,12.02
2023-04-01T22:49:48.088Z,12.01
2023-04-01T22:51:25.676Z,11.98
2023-04-01T22:53:07.632Z,11.97
2023-04-01T22:54:44.263Z,11.94
2023-04-01T22:56:23.320Z,11.90
2023-04-01T22:58:02.304Z,11.91
2023-04-01T22:59:41.522Z,11.89
2023-04-01T23:01:18.766Z,11.80
2023-04-01T23:03:09.708Z,11.86
2023-04-01T23:04:45.906Z,11.88
2023-04-01T23:06:23.009Z,11.85
2023-04-01T23:08:05.358Z,11.90